createdAt,value
2022-08-30T00:00:07.449Z,99768.81
2022-08-30T00:02:36.983Z,99767.41
2022-08-30T00:05:06.310Z,99770.19
2022-08-30T00:07:36.059Z,99773.19
2022-08-30T00:10:06.226Z,99772.91
2022-08-30T00:12:36.066Z,99780.09
2022-08-30T00:15:07.286Z,99780.09
2022-08-30T00:17:37.793Z,99780.13
2022-08-30T00:20:12.178Z,99782.00
2022-08-30T00:22:41.616Z,99777.59
2022-08-30T00:25:11.012Z,99785.94
2022-08-30T00:27:40.656Z,99780.66
2022-08-30T00:30:12.822Z,99786.53
2022-08-30T00:32:42.005Z,99778.22
2022-08-30T00:35:15.211Z,99779.19
2022-08-30T00:37:44.633Z,99785.94
2022-08-30T00:40:16.135Z,99788.69
2022-08-30T00:42:50.653Z,99791.41
2022-08-30T00:45:31.906Z,99787.50
2022-08-30T00:48:01.863Z,99791.63
2022-08-30T00:50:45.353Z,99788.06
2022-08-30T00:53:22.546Z,99788.91
2022-08-30T00:55:53.159Z,99781.78
2022-08-30T00:58:36.928Z,99788.69
2022-08-30T01:01:08.575Z,99780.38
2022-08-30T01:03:39.389Z,99773.91
2022-08-30T01:06:08.989Z,99782.09
2022-08-30T01:08:39.200Z,99775.34
2022-08-30T01:11:08.928Z,99774.19
2022-08-30T01:13:37.574Z,99777.03
2022-08-30T01:16:06.773Z,99773.63
2022-08-30T01:18:39.535Z,99771.91
2022-08-30T01:21:57.637Z,99765.91
2022-08-30T01:24:26.941Z,99761.88
2022-08-30T01:26:56.004Z,99762.19
2022-08-30T01:29:27.133Z,99758.59
2022-08-30T01:31:55.661Z,99749.59
2022-08-30T01:34:25.751Z,99757.00
2022-08-30T01:36:54.427Z,99762.44
2022-08-30T01:39:23.275Z,99764.47
2022-08-30T01:41:52.991Z,99764.19
2022-08-30T01:44:21.615Z,99763.75
2022-08-30T01:46:50.265Z,99761.16
2022-08-30T01:49:27.572Z,99760.59
2022-08-30T01:52:00.702Z,99767.63
2022-08-30T01:54:38.333Z,99759.19
2022-08-30T01:57:11.942Z,99758.16
2022-08-30T01:59:47.705Z,99751.25
2022-08-30T02:02:26.101Z,99753.75
2022-08-30T02:04:56.717Z,99755.44
2022-08-30T02:07:27.578Z,99755.84
2022-08-30T02:09:56.968Z,99761.28
2022-08-30T02:12:26.126Z,99763.84
2022-08-30T02:14:54.776Z,99761.53
2022-08-30T02:17:23.434Z,99756.56
2022-08-30T02:19:52.966Z,99763.44
2022-08-30T02:22:21.517Z,99761.31
2022-08-30T02:24:50.241Z,99760.59
2022-08-30T02:27:19.047Z,99759.56
2022-08-30T02:29:47.805Z,99755.16
2022-08-30T02:32:16.378Z,99761.03
2022-08-30T02:34:47.393Z,99764.34
2022-08-30T02:37:16.149Z,99758.47
2022-08-30T02:39:45.592Z,99756.56
2022-08-30T02:42:14.231Z,99759.25
2022-08-30T02:44:42.834Z,99757.88
2022-08-30T02:47:12.510Z,99753.59
2022-08-30T02:49:41.162Z,99748.72
2022-08-30T02:52:10.599Z,99746.13
2022-08-30T02:54:39.223Z,99747.28
2022-08-30T02:57:19.996Z,99755.03
2022-08-30T02:59:49.869Z,99751.03
2022-08-30T03:02:18.787Z,99749.88
2022-08-30T03:04:49.163Z,99746.88
2022-08-30T03:07:18.493Z,99746.28
2022-08-30T03:09:47.148Z,99757.00
2022-08-30T03:12:16.248Z,99754.16
2022-08-30T03:14:44.996Z,99754.97
2022-08-30T03:17:15.700Z,99753.56
2022-08-30T03:19:46.308Z,99758.53
2022-08-30T03:22:15.253Z,99754.53
2022-08-30T03:24:45.989Z,99751.28
2022-08-30T03:27:14.901Z,99761.28
2022-08-30T03:29:43.614Z,99762.25
2022-08-30T03:32:12.321Z,99764.44
2022-08-30T03:34:41.337Z,99767.56
2022-08-30T03:37:10.121Z,99772.44
2022-08-30T03:39:39.024Z,99776.53
2022-08-30T03:42:07.929Z,99778.97
2022-08-30T03:44:38.079Z,99780.97
2022-08-30T03:47:08.596Z,99786.78
2022-08-30T03:49:37.497Z,99785.19
2022-08-30T03:52:06.484Z,99780.88
2022-08-30T03:54:35.274Z,99787.16
2022-08-30T03:57:06.546Z,99791.91
2022-08-30T03:59:35.694Z,99787.16
2022-08-30T04:02:05.373Z,99781.09
2022-08-30T04:04:34.135Z,99793.38
2022-08-30T04:07:02.879Z,99796.44
2022-08-30T04:09:31.704Z,99795.56
2022-08-30T04:12:00.404Z,99796.41
2022-08-30T04:14:29.874Z,99798.03
2022-08-30T04:16:58.579Z,99801.69
2022-08-30T04:19:27.231Z,99805.16
2022-08-30T04:21:57.486Z,99809.00
2022-08-30T04:24:26.170Z,99812.34
2022-08-30T04:26:54.791Z,99816.03
2022-08-30T04:29:24.226Z,99814.84
2022-08-30T04:31:52.994Z,99825.19
2022-08-30T04:34:24.578Z,99818.84
2022-08-30T04:36:53.360Z,99831.50
2022-08-30T04:39:22.232Z,99826.59
2022-08-30T04:41:50.906Z,99829.31
2022-08-30T04:44:19.803Z,99834.94
2022-08-30T04:46:49.174Z,99834.22
2022-08-30T04:49:17.945Z,99838.31
2022-08-30T04:51:47.475Z,99840.59
2022-08-30T04:54:16.374Z,99836.88
2022-08-30T04:56:45.076Z,99846.81
2022-08-30T04:59:14.205Z,99849.47
2022-08-30T05:01:45.490Z,99850.78
2022-08-30T05:04:28.134Z,99846.13
2022-08-30T05:06:56.926Z,99854.94
2022-08-30T05:09:25.518Z,99854.34
2022-08-30T05:11:54.132Z,99858.63
2022-08-30T05:14:22.746Z,99863.56
2022-08-30T05:16:51.463Z,99861.06
2022-08-30T05:19:20.111Z,99870.16
2022-08-30T05:21:48.703Z,99865.84
2022-08-30T05:24:17.427Z,99867.84
2022-08-30T05:26:46.073Z,99868.91
2022-08-30T05:29:15.552Z,99864.13
2022-08-30T05:31:45.317Z,99873.03
2022-08-30T05:34:17.151Z,99871.72
2022-08-30T05:36:58.263Z,99869.81
2022-08-30T05:39:27.004Z,99874.13
2022-08-30T05:42:00.096Z,99868.81
2022-08-30T05:44:28.713Z,99868.66
2022-08-30T05:46:57.364Z,99869.34
2022-08-30T05:49:25.987Z,99876.53
2022-08-30T05:51:54.601Z,99868.63
2022-08-30T05:54:23.200Z,99875.25
2022-08-30T05:56:51.847Z,99869.78
2022-08-30T05:59:20.493Z,99873.88
2022-08-30T06:01:49.188Z,99887.56
2022-08-30T06:04:18.630Z,99899.41
2022-08-30T06:06:47.216Z,99896.16
2022-08-30T06:09:16.426Z,99891.53
2022-08-30T06:11:46.471Z,99901.16
2022-08-30T06:14:15.950Z,99896.34
2022-08-30T06:16:47.642Z,99892.34
2022-08-30T06:19:17.144Z,99892.88
2022-08-30T06:21:50.795Z,99887.63
2022-08-30T06:24:20.785Z,99882.00
2022-08-30T06:26:56.629Z,99885.00
2022-08-30T06:29:26.090Z,99888.97
2022-08-30T06:31:55.209Z,99892.03
2022-08-30T06:34:24.104Z,99897.13
2022-08-30T06:36:52.659Z,99891.13
2022-08-30T06:39:22.386Z,99901.44
2022-08-30T06:41:51.036Z,99895.28
2022-08-30T06:44:19.676Z,99898.72
2022-08-30T06:46:48.417Z,99896.88
2022-08-30T06:49:17.397Z,99896.25
2022-08-30T06:51:45.942Z,99908.34
2022-08-30T06:54:14.583Z,99903.00
2022-08-30T06:56:57.695Z,99900.41
2022-08-30T06:59:27.995Z,99905.22
2022-08-30T07:01:57.791Z,99898.75
2022-08-30T07:04:27.320Z,99892.06
2022-08-30T07:06:55.755Z,99904.75
2022-08-30T07:09:25.328Z,99908.66
2022-08-30T07:11:54.578Z,99906.09
2022-08-30T07:14:24.103Z,99913.78
2022-08-30T07:16:52.704Z,99913.31
2022-08-30T07:19:22.449Z,99915.34
2022-08-30T07:21:51.220Z,99925.00
2022-08-30T07:24:20.686Z,99937.06
2022-08-30T07:26:52.319Z,99938.66
2022-08-30T07:29:21.559Z,99937.81
2022-08-30T07:31:50.330Z,99927.16
2022-08-30T07:34:22.297Z,99926.47
2022-08-30T07:36:52.033Z,99923.31
2022-08-30T07:39:21.221Z,99931.13
2022-08-30T07:41:50.945Z,99933.81
2022-08-30T07:44:19.967Z,99932.88
2022-08-30T07:46:52.173Z,99932.13
2022-08-30T07:49:20.860Z,99928.94
2022-08-30T07:51:49.401Z,99936.34
2022-08-30T07:54:18.059Z,99932.97
2022-08-30T07:56:46.736Z,99939.34
2022-08-30T07:59:15.924Z,99943.53
2022-08-30T08:01:44.640Z,99942.16
2022-08-30T08:04:13.206Z,99937.97
2022-08-30T08:06:42.722Z,99935.56
2022-08-30T08:09:12.244Z,99931.38
2022-08-30T08:11:41.929Z,99938.66
2022-08-30T08:14:11.596Z,99934.44
2022-08-30T08:16:42.485Z,99929.84
2022-08-30T08:19:12.437Z,99930.78
2022-08-30T08:21:41.362Z,99929.09
2022-08-30T08:24:10.070Z,99942.00
2022-08-30T08:26:40.910Z,99935.31
2022-08-30T08:29:13.946Z,99946.28
2022-08-30T08:31:43.353Z,99944.53
2022-08-30T08:34:13.451Z,99937.50
2022-08-30T08:36:42.574Z,99943.97
2022-08-30T08:39:11.209Z,99948.91
2022-08-30T08:42:06.891Z,99941.59
2022-08-30T08:45:12.230Z,99942.56
2022-08-30T08:48:52.002Z,99939.78
2022-08-30T08:51:47.685Z,99944.53
2022-08-30T08:54:31.303Z,99936.91
2022-08-30T08:57:01.078Z,99940.78
2022-08-30T08:59:29.883Z,99933.97
2022-08-30T09:02:07.165Z,99929.19
2022-08-30T09:04:40.192Z,99940.53
2022-08-30T09:07:26.711Z,99931.44
2022-08-30T09:09:55.649Z,99928.22
2022-08-30T09:12:24.242Z,99922.31
2022-08-30T09:15:16.279Z,99932.13
2022-08-30T09:17:57.018Z,99923.69
2022-08-30T09:20:32.483Z,99925.38
2022-08-30T09:23:27.773Z,99924.84
2022-08-30T09:26:09.665Z,99917.84
2022-08-30T09:28:53.809Z,99921.03
2022-08-30T09:31:31.139Z,99921.81
2022-08-30T09:34:08.633Z,99922.38
2022-08-30T09:36:53.718Z,99912.13
2022-08-30T09:39:37.833Z,99915.44
2022-08-30T09:42:24.927Z,99913.97
2022-08-30T09:45:10.641Z,99911.78
2022-08-30T09:47:43.980Z,99906.16
2022-08-30T09:50:24.094Z,99906.44
2022-08-30T09:53:23.737Z,99899.31
2022-08-30T09:56:10.416Z,99899.72
2022-08-30T09:59:27.104Z,99902.41
2022-08-30T10:02:48.330Z,99894.94
2022-08-30T10:05:53.509Z,99895.63
2022-08-30T10:08:52.317Z,99884.28
2022-08-30T10:12:05.203Z,99887.84
2022-08-30T10:14:46.241Z,99889.66
2022-08-30T10:17:44.905Z,99884.72
2022-08-30T10:20:22.283Z,99887.59
2022-08-30T10:23:54.153Z,99882.09
2022-08-30T10:26:42.974Z,99870.16
2022-08-30T10:29:31.275Z,99873.06
2022-08-30T10:32:11.570Z,99874.09
2022-08-30T10:35:04.171Z,99875.91
2022-08-30T10:38:14.807Z,99877.38
2022-08-30T10:41:09.069Z,99869.34
2022-08-30T10:43:57.807Z,99863.97
2022-08-30T10:47:23.453Z,99872.00
2022-08-30T10:50:19.633Z,99874.78
2022-08-30T10:52:59.366Z,99876.91
2022-08-30T10:55:50.460Z,99861.09
2022-08-30T10:58:20.103Z,99858.19
2022-08-30T11:01:35.727Z,99857.47
2022-08-30T11:05:01.332Z,99859.03
2022-08-30T11:08:52.189Z,99849.31
2022-08-30T11:12:17.200Z,99850.69
2022-08-30T11:14:47.727Z,99838.09
2022-08-30T11:17:44.613Z,99835.63
2022-08-30T11:20:50.313Z,99835.41
2022-08-30T11:23:32.707Z,99829.50
2022-08-30T11:26:21.277Z,99837.84
2022-08-30T11:28:49.659Z,99815.78
2022-08-30T11:31:24.181Z,99826.66
2022-08-30T11:33:57.799Z,99820.91
2022-08-30T11:36:37.812Z,99822.19
2022-08-30T11:39:13.816Z,99819.84
2022-08-30T11:41:48.610Z,99815.84
2022-08-30T11:44:22.849Z,99811.41
2022-08-30T11:46:56.174Z,99812.19
2022-08-30T11:49:46.465Z,99804.97
2022-08-30T11:52:43.239Z,99798.72
2022-08-30T11:55:55.100Z,99803.91
2022-08-30T11:58:52.329Z,99786.63
2022-08-30T12:01:50.927Z,99790.50
2022-08-30T12:04:19.689Z,99788.28
2022-08-30T12:07:08.771Z,99786.53
2022-08-30T12:09:37.792Z,99778.84
2022-08-30T12:12:47.772Z,99785.19
2022-08-30T12:16:03.435Z,99776.38
2022-08-30T12:18:57.355Z,99773.22
2022-08-30T12:21:43.597Z,99771.13
2022-08-30T12:24:44.919Z,99756.59
2022-08-30T12:27:33.301Z,99755.72
2022-08-30T12:30:08.484Z,99748.97
2022-08-30T12:32:50.676Z,99750.03
2022-08-30T12:35:28.587Z,99744.06
2022-08-30T12:38:18.533Z,99740.38
2022-08-30T12:41:00.597Z,99742.00
2022-08-30T12:43:41.629Z,99735.69
2022-08-30T12:46:16.210Z,99725.84
2022-08-30T12:48:46.173Z,99736.00
2022-08-30T12:51:41.443Z,99730.09
2022-08-30T12:54:23.339Z,99726.16
2022-08-30T12:57:13.972Z,99721.22
2022-08-30T12:59:59.623Z,99720.63
2022-08-30T13:02:54.467Z,99721.88
2022-08-30T13:05:45.034Z,99719.47
2022-08-30T13:08:22.942Z,99712.09
2022-08-30T13:11:22.860Z,99719.09
2022-08-30T13:14:43.962Z,99708.47
2022-08-30T13:17:28.477Z,99708.16
2022-08-30T13:20:24.965Z,99701.25
2022-08-30T13:23:09.117Z,99711.03
2022-08-30T13:25:40.098Z,99708.69
2022-08-30T13:29:35.445Z,99702.78
2022-08-30T13:32:04.130Z,99696.66
2022-08-30T13:34:35.329Z,99688.97
2022-08-30T13:37:04.562Z,99691.72
2022-08-30T13:39:34.948Z,99685.47
2022-08-30T13:44:55.243Z,99688.63
2022-08-30T13:47:39.176Z,99682.78
2022-08-30T13:50:08.404Z,99685.75
2022-08-30T13:52:38.970Z,99680.28
2022-08-30T13:55:08.748Z,99681.22
2022-08-30T14:00:27.846Z,99665.94
2022-08-30T14:02:57.438Z,99666.78
2022-08-30T14:06:05.189Z,99654.16
2022-08-30T14:08:49.018Z,99651.53
2022-08-30T14:11:31.322Z,99651.19
2022-08-30T14:14:17.217Z,99645.63
2022-08-30T14:16:48.516Z,99640.28
2022-08-30T14:19:18.532Z,99639.25
2022-08-30T14:21:49.097Z,99628.03
2022-08-30T14:24:20.201Z,99634.97
2022-08-30T14:26:53.153Z,99631.06
2022-08-30T14:29:26.354Z,99633.81
2022-08-30T14:31:59.870Z,99628.84
2022-08-30T14:34:29.032Z,99628.66
2022-08-30T14:36:58.378Z,99629.09
2022-08-30T14:39:27.496Z,99625.66
2022-08-30T14:41:57.278Z,99619.19
2022-08-30T14:44:26.683Z,99616.22
2022-08-30T14:46:56.697Z,99626.09
2022-08-30T14:49:26.690Z,99623.22
2022-08-30T14:51:55.824Z,99623.56
2022-08-30T14:54:28.789Z,99616.94
2022-08-30T14:56:58.555Z,99626.28
2022-08-30T14:59:27.659Z,99624.22
2022-08-30T15:01:56.207Z,99616.78
2022-08-30T15:04:25.230Z,99620.19
2022-08-30T15:06:54.359Z,99616.88
2022-08-30T15:09:24.943Z,99617.50
2022-08-30T15:11:58.643Z,99618.44
2022-08-30T15:14:29.217Z,99623.88
2022-08-30T15:17:00.280Z,99616.34
2022-08-30T15:19:30.195Z,99614.72
2022-08-30T15:22:07.265Z,99609.78
2022-08-30T15:24:37.036Z,99616.28
2022-08-30T15:27:06.160Z,99613.44
2022-08-30T15:29:36.174Z,99606.56
2022-08-30T15:32:06.062Z,99602.03
2022-08-30T15:34:35.243Z,99609.81
2022-08-30T15:37:05.281Z,99615.75
2022-08-30T15:39:37.077Z,99615.72
2022-08-30T15:42:05.789Z,99607.38
2022-08-30T15:44:34.626Z,99608.81
2022-08-30T15:47:03.975Z,99607.91
2022-08-30T15:49:32.763Z,99600.31
2022-08-30T15:52:05.998Z,99601.50
2022-08-30T15:54:36.921Z,99602.94
2022-08-30T15:57:05.821Z,99601.72
2022-08-30T15:59:34.525Z,99605.47
2022-08-30T16:02:03.181Z,99603.34
2022-08-30T16:04:31.895Z,99600.59
2022-08-30T16:07:00.664Z,99601.72
2022-08-30T16:09:30.115Z,99596.88
2022-08-30T16:12:04.854Z,99597.13
2022-08-30T16:14:34.378Z,99597.78
2022-08-30T16:17:03.302Z,99602.09
2022-08-30T16:19:32.187Z,99593.81
2022-08-30T16:22:01.260Z,99587.25
2022-08-30T16:24:29.952Z,99600.41
2022-08-30T16:26:58.465Z,99592.97
2022-08-30T16:29:27.116Z,99591.72
2022-08-30T16:32:01.935Z,99589.16
2022-08-30T16:34:31.898Z,99585.78
2022-08-30T16:37:01.985Z,99586.38
2022-08-30T16:39:30.598Z,99579.16
2022-08-30T16:42:03.364Z,99588.69
2022-08-30T16:44:36.044Z,99585.94
2022-08-30T16:47:04.790Z,99591.44
2022-08-30T16:49:33.382Z,99588.13
2022-08-30T16:52:02.381Z,99590.69
2022-08-30T16:54:32.185Z,99603.22
2022-08-30T16:57:01.371Z,99604.25
2022-08-30T16:59:30.058Z,99598.94
2022-08-30T17:02:00.933Z,99599.78
2022-08-30T17:04:29.802Z,99593.53
2022-08-30T17:06:58.763Z,99607.69
2022-08-30T17:09:27.422Z,99604.13
2022-08-30T17:11:56.446Z,99604.00
2022-08-30T17:14:28.047Z,99606.16
2022-08-30T17:17:00.886Z,99601.75
2022-08-30T17:19:30.527Z,99609.66
2022-08-30T17:22:00.508Z,99606.97
2022-08-30T17:24:29.944Z,99612.84
2022-08-30T17:26:58.595Z,99613.41
2022-08-30T17:29:27.797Z,99615.88
2022-08-30T17:31:57.121Z,99622.72
2022-08-30T17:34:28.490Z,99618.34
2022-08-30T17:37:00.137Z,99621.78
2022-08-30T17:39:29.937Z,99634.31
2022-08-30T17:41:58.826Z,99634.38
2022-08-30T17:44:34.538Z,99642.63
2022-08-30T17:47:03.239Z,99636.31
2022-08-30T17:49:40.922Z,99648.69
2022-08-30T17:52:11.498Z,99656.41
2022-08-30T17:54:41.656Z,99657.97
2022-08-30T17:57:13.182Z,99661.72
2022-08-30T17:59:43.322Z,99660.38
2022-08-30T18:02:13.640Z,99663.88
2022-08-30T18:04:44.125Z,99678.78
2022-08-30T18:07:18.704Z,99678.94
2022-08-30T18:09:49.299Z,99674.41
2022-08-30T18:12:18.029Z,99681.34
2022-08-30T18:14:47.240Z,99680.41
2022-08-30T18:17:22.058Z,99685.19
2022-08-30T18:19:51.023Z,99688.56
2022-08-30T18:22:19.644Z,99693.16
2022-08-30T18:24:49.257Z,99690.50
2022-08-30T18:27:17.990Z,99685.56
2022-08-30T18:29:47.297Z,99691.50
2022-08-30T18:32:16.095Z,99701.38
2022-08-30T18:34:44.918Z,99695.53
2022-08-30T18:37:14.209Z,99697.66
2022-08-30T18:39:45.637Z,99700.19
2022-08-30T18:42:16.191Z,99701.94
2022-08-30T18:44:45.136Z,99708.16
2022-08-30T18:47:13.720Z,99706.69
2022-08-30T18:49:43.019Z,99714.88
2022-08-30T18:52:12.140Z,99710.81
2022-08-30T18:54:52.824Z,99705.53
2022-08-30T18:57:23.165Z,99712.88
2022-08-30T18:59:51.788Z,99707.06
2022-08-30T19:02:20.510Z,99704.47
2022-08-30T19:04:52.030Z,99698.00
2022-08-30T19:07:21.800Z,99697.66
2022-08-30T19:09:58.899Z,99701.06
2022-08-30T19:12:27.733Z,99706.44
2022-08-30T19:14:57.115Z,99695.50
2022-08-30T19:17:27.148Z,99697.34
2022-08-30T19:19:55.856Z,99692.53
2022-08-30T19:22:26.845Z,99688.84
2022-08-30T19:24:57.306Z,99690.66
2022-08-30T19:27:38.459Z,99692.84
2022-08-30T19:30:21.589Z,99697.50
2022-08-30T19:32:52.821Z,99693.66
2022-08-30T19:35:22.493Z,99697.03
2022-08-30T19:37:51.084Z,99688.66
2022-08-30T19:40:21.402Z,99702.25
2022-08-30T19:42:51.613Z,99705.81
2022-08-30T19:45:23.158Z,99700.88
2022-08-30T19:47:53.402Z,99696.19
2022-08-30T19:50:22.982Z,99692.97
2022-08-30T19:52:54.838Z,99703.09
2022-08-30T19:55:31.285Z,99699.97
2022-08-30T19:58:00.330Z,99696.63
2022-08-30T20:00:31.444Z,99692.00
2022-08-30T20:03:01.741Z,99693.84
2022-08-30T20:05:32.085Z,99690.91
2022-08-30T20:08:01.123Z,99686.63
2022-08-30T20:10:30.175Z,99680.47
2022-08-30T20:12:59.787Z,99689.56
2022-08-30T20:15:31.352Z,99680.66
2022-08-30T20:18:06.121Z,99678.78
2022-08-30T20:20:49.464Z,99693.66
2022-08-30T20:23:22.998Z,99683.72
2022-08-30T20:25:54.831Z,99688.47
2022-08-30T20:28:25.606Z,99693.31
2022-08-30T20:30:56.107Z,99686.84
2022-08-30T20:33:25.943Z,99685.47
2022-08-30T20:35:54.691Z,99683.06
2022-08-30T20:38:24.006Z,99688.91
2022-08-30T20:40:58.677Z,99681.75
2022-08-30T20:43:31.728Z,99681.22
2022-08-30T20:46:17.119Z,99675.94
2022-08-30T20:48:47.967Z,99678.63
2022-08-30T20:51:23.196Z,99678.28
2022-08-30T20:54:03.414Z,99680.03
2022-08-30T20:56:32.399Z,99681.03
2022-08-30T20:59:03.569Z,99679.63
2022-08-30T21:01:38.563Z,99677.28
2022-08-30T21:04:08.202Z,99683.75
2022-08-30T21:06:37.810Z,99685.78
2022-08-30T21:09:09.037Z,99682.84
2022-08-30T21:11:38.503Z,99686.88
2022-08-30T21:14:13.537Z,99682.91
2022-08-30T21:16:42.664Z,99681.22
2022-08-30T21:19:11.133Z,99673.19
2022-08-30T21:21:40.163Z,99680.03
2022-08-30T21:24:10.488Z,99683.97
2022-08-30T21:26:41.707Z,99694.56
2022-08-30T21:29:12.562Z,99711.50
2022-08-30T21:31:41.331Z,99708.84
2022-08-30T21:34:17.470Z,99700.75
2022-08-30T21:36:47.766Z,99701.81
2022-08-30T21:39:27.356Z,99707.13
2022-08-30T21:41:57.530Z,99702.53
2022-08-30T21:44:27.646Z,99704.09
2022-08-30T21:46:56.303Z,99703.38
2022-08-30T21:49:25.507Z,99702.19
2022-08-30T21:51:55.530Z,99708.00
2022-08-30T21:54:29.369Z,99705.56
2022-08-30T21:57:02.338Z,99694.44
2022-08-30T21:59:31.542Z,99700.28
2022-08-30T22:02:00.119Z,99700.75
2022-08-30T22:04:29.661Z,99711.91
2022-08-30T22:06:59.439Z,99698.44
2022-08-30T22:09:27.893Z,99699.09
2022-08-30T22:11:56.682Z,99701.28
2022-08-30T22:14:26.510Z,99694.41
2022-08-30T22:16:55.760Z,99691.94
2022-08-30T22:19:25.056Z,99694.16
2022-08-30T22:22:00.664Z,99698.59
2022-08-30T22:24:32.627Z,99701.31
2022-08-30T22:27:05.179Z,99697.94
2022-08-30T22:29:34.170Z,99703.31
2022-08-30T22:32:04.269Z,99705.91
2022-08-30T22:34:33.128Z,99704.06
2022-08-30T22:37:01.841Z,99700.06
2022-08-30T22:39:30.510Z,99703.66
2022-08-30T22:41:58.964Z,99707.41
2022-08-30T22:44:27.636Z,99714.34
2022-08-30T22:46:56.030Z,99700.44
2022-08-30T22:49:24.485Z,99698.84
2022-08-30T22:51:53.181Z,99695.66
2022-08-30T22:54:21.763Z,99704.72
2022-08-30T22:56:50.360Z,99703.66
2022-08-30T22:59:18.838Z,99703.66
2022-08-30T23:01:47.690Z,99701.38
2022-08-30T23:04:29.503Z,99698.97
2022-08-30T23:06:58.102Z,99693.19
2022-08-30T23:09:29.088Z,99688.19
2022-08-30T23:11:57.818Z,99681.50
2022-08-30T23:14:26.758Z,99682.16
2022-08-30T23:16:55.701Z,99684.47
2022-08-30T23:19:24.431Z,99677.00
2022-08-30T23:21:52.971Z,99683.91
2022-08-30T23:24:40.781Z,99679.38
2022-08-30T23:27:33.198Z,99670.28
2022-08-30T23:30:20.177Z,99674.22
2022-08-30T23:33:06.941Z,99683.22
2022-08-30T23:35:56.479Z,99670.41
2022-08-30T23:38:43.600Z,99673.19
2022-08-30T23:41:34.133Z,99671.56
2022-08-30T23:44:22.155Z,99663.72
2022-08-30T23:47:09.493Z,99658.72
2022-08-30T23:49:56.782Z,99660.41
2022-08-30T23:52:43.767Z,99661.38
2022-08-30T23:55:31.620Z,99660.94
2022-08-30T23:58:18.631Z,99656.44
